createdAt,value
2024-01-28T00:02:24.598Z,101767.27
2024-01-28T00:04:56.970Z,101774.55
2024-01-28T00:07:29.295Z,101771.70
2024-01-28T00:10:01.813Z,101771.72
2024-01-28T00:12:34.426Z,101769.92
2024-01-28T00:15:08.475Z,101768.90
2024-01-28T00:17:40.931Z,101762.40
2024-01-28T00:20:15.824Z,101764.54
2024-01-28T00:22:48.177Z,101765.60
2024-01-28T00:25:20.568Z,101770.73
2024-01-28T00:27:52.974Z,101770.88
2024-01-28T00:30:31.455Z,101771.81
2024-01-28T00:33:04.023Z,101767.45
2024-01-28T00:35:36.473Z,101771.13
2024-01-28T00:38:10.700Z,101765.23
2024-01-28T00:40:43.118Z,101763.80
2024-01-28T00:43:15.464Z,101758.34
2024-01-28T00:45:48.076Z,101762.41
2024-01-28T00:48:20.612Z,101759.81
2024-01-28T00:50:53.201Z,101757.77
2024-01-28T00:53:25.578Z,101761.48
2024-01-28T00:55:58.047Z,101755.80
2024-01-28T00:58:30.965Z,101757.63
2024-01-28T01:01:03.490Z,101759.29
2024-01-28T01:03:35.996Z,101765.41
2024-01-28T01:06:09.308Z,101770.48
2024-01-28T01:08:41.663Z,101772.45
2024-01-28T01:11:14.377Z,101782.98
2024-01-28T01:13:46.733Z,101783.35
2024-01-28T01:16:19.392Z,101789.12
2024-01-28T01:18:52.035Z,101789.52
2024-01-28T01:21:24.598Z,101789.61
2024-01-28T01:23:57.549Z,101794.08
2024-01-28T01:26:29.939Z,101795.56
2024-01-28T01:29:02.305Z,101801.70
2024-01-28T01:31:34.691Z,101806.00
2024-01-28T01:34:07.496Z,101811.48
2024-01-28T01:36:40.061Z,101812.89
2024-01-28T01:39:13.594Z,101821.98
2024-01-28T01:41:46.142Z,101828.61
2024-01-28T01:44:18.911Z,101826.25
2024-01-28T01:46:51.302Z,101825.90
2024-01-28T01:49:23.921Z,101825.33
2024-01-28T01:51:57.132Z,101826.58
2024-01-28T01:54:29.956Z,101829.40
2024-01-28T01:57:03.601Z,101833.04
2024-01-28T01:59:36.905Z,101831.70
2024-01-28T02:02:12.105Z,101831.27
2024-01-28T02:04:45.178Z,101831.29
2024-01-28T02:07:17.699Z,101838.75
2024-01-28T02:09:50.147Z,101839.90
2024-01-28T02:12:22.942Z,101838.71
2024-01-28T02:15:06.875Z,101835.52
2024-01-28T02:17:39.613Z,101835.03
2024-01-28T02:20:14.643Z,101833.73
2024-01-28T02:22:47.118Z,101830.62
2024-01-28T02:25:19.487Z,101833.02
2024-01-28T02:27:52.146Z,101832.84
2024-01-28T02:30:24.507Z,101829.40
2024-01-28T02:32:57.194Z,101832.71
2024-01-28T02:35:29.635Z,101832.48
2024-01-28T02:38:02.201Z,101835.87
2024-01-28T02:40:35.153Z,101833.21
2024-01-28T02:43:08.814Z,101830.59
2024-01-28T02:45:41.198Z,101829.27
2024-01-28T02:48:13.715Z,101831.16
2024-01-28T02:50:46.254Z,101831.90
2024-01-28T02:53:19.053Z,101831.58
2024-01-28T02:55:51.419Z,101830.61
2024-01-28T02:58:23.805Z,101836.95
2024-01-28T03:00:56.398Z,101837.30
2024-01-28T03:03:29.495Z,101836.42
2024-01-28T03:06:02.191Z,101839.59
2024-01-28T03:08:35.267Z,101848.91
2024-01-28T03:11:07.790Z,101853.45
2024-01-28T03:13:40.863Z,101860.12
2024-01-28T03:16:13.138Z,101860.93
2024-01-28T03:18:45.626Z,101862.05
2024-01-28T03:21:18.139Z,101864.59
2024-01-28T03:23:50.557Z,101866.61
2024-01-28T03:26:22.945Z,101866.74
2024-01-28T03:28:55.343Z,101872.46
2024-01-28T03:31:27.895Z,101874.42
2024-01-28T03:34:00.683Z,101876.69
2024-01-28T03:36:33.153Z,101881.91
2024-01-28T03:39:06.617Z,101892.08
2024-01-28T03:41:39.723Z,101895.00
2024-01-28T03:44:12.949Z,101895.04
2024-01-28T03:46:45.278Z,101900.44
2024-01-28T03:49:17.719Z,101905.65
2024-01-28T03:51:50.585Z,101904.36
2024-01-28T03:54:23.098Z,101906.34
2024-01-28T03:56:55.456Z,101897.32
2024-01-28T03:59:28.989Z,101899.77
2024-01-28T04:02:02.821Z,101900.48
2024-01-28T04:04:35.355Z,101901.95
2024-01-28T04:07:07.908Z,101907.00
2024-01-28T04:09:42.312Z,101908.61
2024-01-28T04:12:14.819Z,101910.80
2024-01-28T04:14:47.162Z,101909.56
2024-01-28T04:17:19.728Z,101916.20
2024-01-28T04:19:53.456Z,101917.76
2024-01-28T04:22:26.043Z,101913.05
2024-01-28T04:24:58.445Z,101909.83
2024-01-28T04:27:30.863Z,101910.42
2024-01-28T04:30:04.021Z,101913.10
2024-01-28T04:32:36.442Z,101916.58
2024-01-28T04:35:12.527Z,101914.02
2024-01-28T04:37:44.976Z,101913.63
2024-01-28T04:40:17.813Z,101915.45
2024-01-28T04:42:50.148Z,101921.20
2024-01-28T04:45:22.546Z,101922.68
2024-01-28T04:47:55.007Z,101926.73
2024-01-28T04:50:27.600Z,101925.11
2024-01-28T04:52:59.901Z,101929.66
2024-01-28T04:55:32.452Z,101935.45
2024-01-28T04:58:04.933Z,101944.73
2024-01-28T05:00:37.351Z,101946.13
2024-01-28T05:03:10.101Z,101947.26
2024-01-28T05:05:42.739Z,101948.09
2024-01-28T05:08:15.701Z,101950.56
2024-01-28T05:10:48.096Z,101946.31
2024-01-28T05:13:20.557Z,101940.15
2024-01-28T05:15:53.011Z,101939.48
2024-01-28T05:18:25.837Z,101935.84
2024-01-28T05:20:58.676Z,101939.33
2024-01-28T05:23:31.034Z,101938.04
2024-01-28T05:26:03.642Z,101941.19
2024-01-28T05:28:36.253Z,101945.73
2024-01-28T05:31:09.432Z,101947.34
2024-01-28T05:33:42.558Z,101945.80
2024-01-28T05:36:18.455Z,101959.25
2024-01-28T05:38:50.751Z,101958.48
2024-01-28T05:41:23.207Z,101958.21
2024-01-28T05:43:55.550Z,101957.96
2024-01-28T05:46:27.897Z,101958.41
2024-01-28T05:49:00.270Z,101953.50
2024-01-28T05:51:35.642Z,101958.39
2024-01-28T05:54:08.432Z,101962.92
2024-01-28T05:56:40.966Z,101964.60
2024-01-28T05:59:13.300Z,101966.98
2024-01-28T06:01:45.812Z,101973.71
2024-01-28T06:04:18.217Z,101972.90
2024-01-28T06:06:50.784Z,101973.70
2024-01-28T06:09:23.313Z,101980.03
2024-01-28T06:11:55.675Z,101985.44
2024-01-28T06:14:28.981Z,101988.61
2024-01-28T06:17:01.361Z,101993.11
2024-01-28T06:19:33.762Z,101994.95
2024-01-28T06:22:06.480Z,101996.91
2024-01-28T06:24:43.444Z,102002.70
2024-01-28T06:27:16.426Z,102004.30
2024-01-28T06:29:48.898Z,102004.12
2024-01-28T06:32:23.150Z,102006.30
2024-01-28T06:34:55.660Z,102006.75
2024-01-28T06:37:28.530Z,102011.62
2024-01-28T06:40:01.515Z,102009.73
2024-01-28T06:42:34.105Z,102008.92
2024-01-28T06:45:09.221Z,102011.02
2024-01-28T06:47:43.100Z,102014.23
2024-01-28T06:50:15.806Z,102014.68
2024-01-28T06:52:49.277Z,102016.02
2024-01-28T06:55:21.673Z,102018.45
2024-01-28T06:57:53.981Z,102024.14
2024-01-28T07:00:26.687Z,102024.66
2024-01-28T07:02:59.945Z,102029.27
2024-01-28T07:05:34.091Z,102032.77
2024-01-28T07:08:08.869Z,102034.55
2024-01-28T07:10:41.254Z,102031.21
2024-01-28T07:13:13.692Z,102035.27
2024-01-28T07:15:46.190Z,102040.98
2024-01-28T07:18:19.442Z,102047.84
2024-01-28T07:20:51.764Z,102054.52
2024-01-28T07:23:24.307Z,102056.09
2024-01-28T07:25:56.659Z,102057.59
2024-01-28T07:28:29.186Z,102052.91
2024-01-28T07:31:01.738Z,102049.89
2024-01-28T07:33:34.339Z,102053.39
2024-01-28T07:36:07.166Z,102057.98
2024-01-28T07:38:39.507Z,102059.52
2024-01-28T07:41:15.848Z,102057.52
2024-01-28T07:43:48.418Z,102053.87
2024-01-28T07:46:22.984Z,102050.53
2024-01-28T07:48:55.397Z,102054.23
2024-01-28T07:51:28.210Z,102054.52
2024-01-28T07:54:00.586Z,102053.70
2024-01-28T07:56:33.074Z,102055.20
2024-01-28T07:59:05.438Z,102056.15
2024-01-28T08:01:38.147Z,102058.81
2024-01-28T08:04:10.783Z,102059.04
2024-01-28T08:06:43.227Z,102055.26
2024-01-28T08:09:15.719Z,102053.02
2024-01-28T08:11:48.191Z,102055.85
2024-01-28T08:14:20.550Z,102059.54
2024-01-28T08:16:52.932Z,102064.48
2024-01-28T08:19:25.711Z,102066.29
2024-01-28T08:21:58.200Z,102065.30
2024-01-28T08:24:30.641Z,102065.59
2024-01-28T08:27:03.081Z,102072.44
2024-01-28T08:29:35.601Z,102072.56
2024-01-28T08:32:08.930Z,102073.80
2024-01-28T08:34:41.326Z,102074.30
2024-01-28T08:37:13.673Z,102077.88
2024-01-28T08:39:46.409Z,102077.96
2024-01-28T08:42:20.460Z,102083.26
2024-01-28T08:44:53.050Z,102082.74
2024-01-28T08:47:25.495Z,102085.51
2024-01-28T08:49:58.678Z,102092.10
2024-01-28T08:52:31.113Z,102095.44
2024-01-28T08:55:03.969Z,102100.61
2024-01-28T08:57:36.558Z,102103.29
2024-01-28T09:00:13.640Z,102102.98
2024-01-28T09:02:46.076Z,102106.00
2024-01-28T09:05:19.017Z,102105.82
2024-01-28T09:07:53.058Z,102110.65
2024-01-28T09:10:25.487Z,102108.89
2024-01-28T09:12:57.918Z,102112.72
2024-01-28T09:15:30.419Z,102118.15
2024-01-28T09:18:03.538Z,102116.76
2024-01-28T09:20:35.944Z,102117.45
2024-01-28T09:23:08.392Z,102120.01
2024-01-28T09:25:40.847Z,102124.86
2024-01-28T09:28:13.270Z,102128.75
2024-01-28T09:30:46.175Z,102129.79
2024-01-28T09:33:18.717Z,102125.38
2024-01-28T09:35:53.707Z,102128.70
2024-01-28T09:38:24.393Z,102130.55
2024-01-28T09:40:56.793Z,102132.59
2024-01-28T09:43:32.085Z,102136.02
2024-01-28T09:46:06.975Z,102138.66
2024-01-28T09:48:40.114Z,102142.96
2024-01-28T09:51:13.534Z,102142.72
2024-01-28T09:53:46.254Z,102142.19
2024-01-28T09:56:18.835Z,102140.42
2024-01-28T09:58:51.800Z,102146.89
2024-01-28T10:01:25.773Z,102150.47
2024-01-28T10:04:01.508Z,102150.47
2024-01-28T10:06:34.435Z,102147.63
2024-01-28T10:09:07.131Z,102148.90
2024-01-28T10:11:39.671Z,102149.36
2024-01-28T10:14:12.375Z,102148.59
2024-01-28T10:16:47.503Z,102149.70
2024-01-28T10:19:20.032Z,102153.34
2024-01-28T10:21:53.227Z,102154.83
2024-01-28T10:24:26.489Z,102151.19
2024-01-28T10:27:01.806Z,102151.65
2024-01-28T10:29:34.722Z,102154.72
2024-01-28T10:32:08.249Z,102155.08
2024-01-28T10:34:41.200Z,102152.11
2024-01-28T10:37:16.809Z,102155.33
2024-01-28T10:39:53.392Z,102154.85
2024-01-28T10:42:29.479Z,102152.92
2024-01-28T10:45:02.710Z,102143.56
2024-01-28T10:47:37.562Z,102145.87
2024-01-28T10:50:10.422Z,102150.57
2024-01-28T10:52:43.545Z,102152.90
2024-01-28T10:55:17.444Z,102152.77
2024-01-28T10:57:50.745Z,102149.48
2024-01-28T11:00:23.378Z,102150.49
2024-01-28T11:02:58.052Z,102148.00
2024-01-28T11:05:29.849Z,102147.30
2024-01-28T11:08:02.758Z,102148.26
2024-01-28T11:10:35.547Z,102150.55
2024-01-28T11:13:09.915Z,102153.65
2024-01-28T11:15:45.361Z,102151.88
2024-01-28T11:18:19.198Z,102155.85
2024-01-28T11:20:51.683Z,102157.63
2024-01-28T11:23:24.409Z,102153.86
2024-01-28T11:26:00.012Z,102153.38
2024-01-28T11:28:50.293Z,102150.52
2024-01-28T11:31:33.117Z,102150.98
2024-01-28T11:34:22.699Z,102148.34
2024-01-28T11:36:56.421Z,102153.08
2024-01-28T11:39:41.560Z,102157.65
2024-01-28T11:42:14.290Z,102162.02
2024-01-28T11:44:49.527Z,102162.70
2024-01-28T11:47:23.813Z,102158.55
2024-01-28T11:49:57.627Z,102157.60
2024-01-28T11:52:30.568Z,102158.91
2024-01-28T11:55:13.005Z,102161.63
2024-01-28T11:57:48.602Z,102159.92
2024-01-28T12:00:22.411Z,102160.80
2024-01-28T12:02:55.327Z,102161.91
2024-01-28T12:05:27.728Z,102163.58
2024-01-28T12:08:05.005Z,102168.63
2024-01-28T12:10:39.659Z,102162.46
2024-01-28T12:13:13.590Z,102161.30
2024-01-28T12:15:46.107Z,102163.16
2024-01-28T12:18:18.766Z,102167.11
2024-01-28T12:20:54.615Z,102172.20
2024-01-28T12:23:27.084Z,102178.06
2024-01-28T12:26:00.253Z,102176.08
2024-01-28T12:28:32.817Z,102170.21
2024-01-28T12:31:06.661Z,102168.44
2024-01-28T12:33:40.474Z,102166.80
2024-01-28T12:36:13.196Z,102163.14
2024-01-28T12:38:45.600Z,102159.23
2024-01-28T12:41:17.910Z,102158.08
2024-01-28T12:43:53.386Z,102160.95
2024-01-28T12:46:38.517Z,102161.55
2024-01-28T12:49:12.980Z,102159.28
2024-01-28T12:51:46.017Z,102157.89
2024-01-28T12:54:19.012Z,102160.27
2024-01-28T12:56:52.127Z,102159.66
2024-01-28T12:59:24.790Z,102162.70
2024-01-28T13:01:57.354Z,102162.52
2024-01-28T13:04:30.720Z,102160.91
2024-01-28T13:07:03.354Z,102157.98
2024-01-28T13:09:35.764Z,102155.67
2024-01-28T13:12:11.049Z,102153.60
2024-01-28T13:14:43.451Z,102155.96
2024-01-28T13:17:15.909Z,102156.95
2024-01-28T13:19:51.547Z,102159.09
2024-01-28T13:22:24.762Z,102158.20
2024-01-28T13:24:57.530Z,102161.42
2024-01-28T13:27:31.076Z,102163.94
2024-01-28T13:30:04.250Z,102165.85
2024-01-28T13:32:39.285Z,102169.80
2024-01-28T13:35:12.614Z,102166.77
2024-01-28T13:37:45.735Z,102169.42
2024-01-28T13:40:18.215Z,102170.67
2024-01-28T13:42:50.584Z,102172.05
2024-01-28T13:45:22.943Z,102178.36
2024-01-28T13:47:55.408Z,102180.75
2024-01-28T13:50:28.029Z,102176.69
2024-01-28T13:53:00.916Z,102183.22
2024-01-28T13:55:33.592Z,102186.53
2024-01-28T13:58:06.278Z,102188.83
2024-01-28T14:00:38.748Z,102184.38
2024-01-28T14:03:13.193Z,102181.73
2024-01-28T14:05:45.767Z,102177.67
2024-01-28T14:08:18.291Z,102175.08
2024-01-28T14:10:50.648Z,102170.46
2024-01-28T14:13:23.096Z,102166.45
2024-01-28T14:15:55.742Z,102167.77
2024-01-28T14:18:28.176Z,102168.86
2024-01-28T14:21:00.544Z,102166.05
2024-01-28T14:23:34.655Z,102165.07
2024-01-28T14:26:09.061Z,102167.06
2024-01-28T14:28:41.599Z,102165.66
2024-01-28T14:31:14.558Z,102158.05
2024-01-28T14:33:47.001Z,102163.59
2024-01-28T14:36:19.506Z,102164.35
2024-01-28T14:38:52.460Z,102166.20
2024-01-28T14:41:24.834Z,102165.95
2024-01-28T14:43:57.284Z,102170.53
2024-01-28T14:46:29.795Z,102167.41
2024-01-28T14:49:03.156Z,102161.14
2024-01-28T14:51:40.420Z,102162.01
2024-01-28T14:54:13.778Z,102153.05
2024-01-28T14:56:46.242Z,102150.43
2024-01-28T14:59:18.670Z,102153.98
2024-01-28T15:01:51.057Z,102164.55
2024-01-28T15:04:23.614Z,102162.52
2024-01-28T15:06:56.774Z,102159.28
2024-01-28T15:09:29.402Z,102167.17
2024-01-28T15:12:01.912Z,102163.92
2024-01-28T15:14:35.020Z,102167.60
2024-01-28T15:17:08.546Z,102168.80
2024-01-28T15:19:41.017Z,102167.77
2024-01-28T15:22:13.919Z,102178.41
2024-01-28T15:24:46.648Z,102187.41
2024-01-28T15:27:19.140Z,102196.04
2024-01-28T15:29:51.811Z,102202.17
2024-01-28T15:32:24.290Z,102205.88
2024-01-28T15:34:57.680Z,102208.56
2024-01-28T15:37:33.500Z,102209.04
2024-01-28T15:40:07.138Z,102208.48
2024-01-28T15:42:39.543Z,102203.30
2024-01-28T15:45:14.375Z,102206.33
2024-01-28T15:47:48.604Z,102205.55
2024-01-28T15:50:21.184Z,102205.48
2024-01-28T15:52:53.571Z,102211.98
2024-01-28T15:55:31.538Z,102216.04
2024-01-28T15:58:04.909Z,102217.81
2024-01-28T16:00:37.487Z,102215.70
2024-01-28T16:03:10.237Z,102207.35
2024-01-28T16:05:42.828Z,102205.58
2024-01-28T16:08:15.447Z,102201.84
2024-01-28T16:10:48.029Z,102204.48
2024-01-28T16:13:20.806Z,102203.20
2024-01-28T16:15:53.272Z,102199.38
2024-01-28T16:18:25.845Z,102194.34
2024-01-28T16:20:58.858Z,102192.53
2024-01-28T16:23:31.239Z,102182.29
2024-01-28T16:26:05.704Z,102175.89
2024-01-28T16:28:38.123Z,102170.26
2024-01-28T16:31:10.623Z,102164.86
2024-01-28T16:33:43.092Z,102164.69
2024-01-28T16:36:17.662Z,102160.10
2024-01-28T16:38:50.484Z,102157.23
2024-01-28T16:43:55.303Z,102160.62
2024-01-28T16:46:27.769Z,102162.33
2024-01-28T16:49:00.314Z,102160.84
2024-01-28T16:51:32.874Z,102157.52
2024-01-28T16:54:05.504Z,102156.57
2024-01-28T16:56:38.111Z,102160.11
2024-01-28T16:59:10.843Z,102163.30
2024-01-28T17:01:44.630Z,102163.15
2024-01-28T17:04:17.519Z,102166.96
2024-01-28T17:06:50.120Z,102167.64
2024-01-28T17:09:22.511Z,102167.16
2024-01-28T17:11:55.081Z,102171.48
2024-01-28T17:14:27.460Z,102179.29
2024-01-28T17:16:59.968Z,102182.04
2024-01-28T17:19:33.130Z,102187.64
2024-01-28T17:22:06.014Z,102190.13
2024-01-28T17:24:38.478Z,102192.23
2024-01-28T17:27:10.881Z,102192.17
2024-01-28T17:29:43.610Z,102199.86
2024-01-28T17:32:16.121Z,102201.41
2024-01-28T17:34:50.746Z,102199.77
2024-01-28T17:37:22.315Z,102200.85
2024-01-28T17:39:55.546Z,102200.54
2024-01-28T17:42:30.065Z,102211.04
2024-01-28T17:45:02.959Z,102199.31
2024-01-28T17:47:37.579Z,102198.18
2024-01-28T17:50:12.761Z,102200.61
2024-01-28T17:52:45.361Z,102197.46
2024-01-28T17:55:18.512Z,102202.01
2024-01-28T17:57:51.017Z,102208.77
2024-01-28T18:00:25.880Z,102215.71
2024-01-28T18:02:58.320Z,102222.14
2024-01-28T18:05:31.366Z,102226.75
2024-01-28T18:08:04.532Z,102226.16
2024-01-28T18:10:37.031Z,102229.50
2024-01-28T18:13:09.623Z,102229.59
2024-01-28T18:15:42.116Z,102234.64
2024-01-28T18:18:15.472Z,102230.67
2024-01-28T18:20:47.991Z,102234.73
2024-01-28T18:23:22.034Z,102237.23
2024-01-28T18:25:54.622Z,102238.30
2024-01-28T18:28:27.061Z,102247.31
2024-01-28T18:30:59.477Z,102247.59
2024-01-28T18:33:35.652Z,102252.48
2024-01-28T18:36:10.358Z,102251.84
2024-01-28T18:38:43.027Z,102250.13
2024-01-28T18:41:15.764Z,102251.27
2024-01-28T18:43:49.750Z,102256.00
2024-01-28T18:46:22.119Z,102258.33
2024-01-28T18:48:54.615Z,102261.23
2024-01-28T18:51:27.042Z,102261.69
2024-01-28T18:53:59.451Z,102256.79
2024-01-28T18:56:31.819Z,102249.84
2024-01-28T18:59:06.355Z,102247.38
2024-01-28T19:01:39.008Z,102246.00
2024-01-28T19:04:11.404Z,102248.89
2024-01-28T19:06:43.870Z,102246.68
2024-01-28T19:09:16.490Z,102244.12
2024-01-28T19:11:49.334Z,102237.93
2024-01-28T19:14:21.834Z,102237.85
2024-01-28T19:16:54.365Z,102237.88
2024-01-28T19:19:28.540Z,102239.13
2024-01-28T19:22:01.281Z,102239.22
2024-01-28T19:24:34.735Z,102235.64
2024-01-28T19:27:09.072Z,102232.34
2024-01-28T19:29:42.050Z,102236.09
2024-01-28T19:32:14.491Z,102240.31
2024-01-28T19:34:46.991Z,102245.06
2024-01-28T19:37:19.965Z,102239.92
2024-01-28T19:39:52.292Z,102240.54
2024-01-28T19:42:26.110Z,102240.34
2024-01-28T19:44:58.788Z,102235.64
2024-01-28T19:47:31.316Z,102234.98
2024-01-28T19:50:04.244Z,102233.33
2024-01-28T19:52:36.849Z,102235.89
2024-01-28T19:55:10.355Z,102234.15
2024-01-28T19:57:42.867Z,102228.84
2024-01-28T20:00:17.200Z,102231.55
2024-01-28T20:02:51.431Z,102231.81
2024-01-28T20:05:24.034Z,102230.59
2024-01-28T20:07:56.513Z,102232.36
2024-01-28T20:10:28.905Z,102223.08
2024-01-28T20:13:01.507Z,102220.58
2024-01-28T20:15:34.261Z,102220.73
2024-01-28T20:18:07.452Z,102216.65
2024-01-28T20:20:40.167Z,102215.41
2024-01-28T20:23:15.043Z,102214.34
2024-01-28T20:25:53.993Z,102220.18
2024-01-28T20:28:28.270Z,102214.02
2024-01-28T20:31:00.815Z,102216.38
2024-01-28T20:33:33.346Z,102216.33
2024-01-28T20:36:06.387Z,102216.05
2024-01-28T20:38:39.249Z,102213.24
2024-01-28T20:41:11.756Z,102210.10
2024-01-28T20:43:44.648Z,102211.88
2024-01-28T20:46:17.128Z,102209.55
2024-01-28T20:48:53.169Z,102206.31
2024-01-28T20:51:25.813Z,102204.27
2024-01-28T20:53:58.257Z,102197.17
2024-01-28T20:56:30.651Z,102196.98
2024-01-28T20:59:03.094Z,102192.73
2024-01-28T21:01:35.766Z,102191.13
2024-01-28T21:04:08.381Z,102191.78
2024-01-28T21:06:41.075Z,102190.27
2024-01-28T21:09:13.421Z,102190.59
2024-01-28T21:11:45.821Z,102199.76
2024-01-28T21:14:18.383Z,102199.77
2024-01-28T21:16:51.642Z,102204.77
2024-01-28T21:19:29.190Z,102201.01
2024-01-28T21:22:29.365Z,102197.38
2024-01-28T21:25:01.938Z,102198.83
2024-01-28T21:27:36.290Z,102200.65
2024-01-28T21:30:11.298Z,102200.39
2024-01-28T21:32:43.945Z,102200.36
2024-01-28T21:35:16.601Z,102203.77
2024-01-28T21:37:49.143Z,102201.73
2024-01-28T21:40:21.467Z,102203.43
2024-01-28T21:42:53.913Z,102199.05
2024-01-28T21:45:26.387Z,102200.87
2024-01-28T21:47:58.874Z,102202.73
2024-01-28T21:50:31.241Z,102205.77
2024-01-28T21:53:03.590Z,102209.84
2024-01-28T21:55:36.077Z,102203.96
2024-01-28T21:58:08.623Z,102204.73
2024-01-28T22:00:41.112Z,102207.70
2024-01-28T22:03:13.591Z,102209.82
2024-01-28T22:05:46.561Z,102209.20
2024-01-28T22:08:19.406Z,102213.42
2024-01-28T22:10:51.851Z,102213.81
2024-01-28T22:13:24.429Z,102208.30
2024-01-28T22:15:56.854Z,102201.63
2024-01-28T22:18:30.082Z,102201.34
2024-01-28T22:21:03.303Z,102196.14
2024-01-28T22:23:35.689Z,102189.77
2024-01-28T22:26:08.204Z,102188.55
2024-01-28T22:28:42.553Z,102190.63
2024-01-28T22:31:15.242Z,102195.88
2024-01-28T22:33:48.303Z,102194.58
2024-01-28T22:36:20.639Z,102195.58
2024-01-28T22:38:53.168Z,102191.75
2024-01-28T22:41:25.575Z,102189.42
2024-01-28T22:43:59.249Z,102188.36
2024-01-28T22:46:31.690Z,102192.80
2024-01-28T22:49:04.234Z,102188.16
2024-01-28T22:51:38.102Z,102185.54
2024-01-28T22:54:11.461Z,102186.36
2024-01-28T22:56:44.215Z,102184.63
2024-01-28T22:59:16.531Z,102182.16
2024-01-28T23:01:50.429Z,102182.38
2024-01-28T23:04:23.060Z,102181.11
2024-01-28T23:06:55.493Z,102182.89
2024-01-28T23:09:28.214Z,102181.14
2024-01-28T23:12:01.689Z,102180.83
2024-01-28T23:14:34.125Z,102180.39
2024-01-28T23:17:06.893Z,102177.57
2024-01-28T23:19:39.344Z,102174.15
2024-01-28T23:22:12.151Z,102178.04
2024-01-28T23:24:44.647Z,102175.75
2024-01-28T23:27:17.037Z,102178.68
2024-01-28T23:29:49.654Z,102175.10
2024-01-28T23:32:22.012Z,102172.10
2024-01-28T23:34:54.542Z,102173.08
2024-01-28T23:37:27.159Z,102167.34
2024-01-28T23:39:59.928Z,102165.34
2024-01-28T23:42:32.375Z,102159.13
2024-01-28T23:45:05.298Z,102158.36
2024-01-28T23:47:37.679Z,102153.11
2024-01-28T23:50:11.923Z,102147.46
2024-01-28T23:52:44.500Z,102147.68
2024-01-28T23:55:16.879Z,102150.95
2024-01-28T23:57:49.326Z,102151.84
